Time;durP1;ratioP1;P1;durP2;ratioP2;P2;SDS_P1;SDS_P2;PMS_P1;PMS_P2;Temp;Humidity;BMP_temperature;BMP_pressure;BME280_temperature;BME280_humidity;BME280_pressure;Samples;Min_cycle;Max_cycle;Signal;HPM_P1;HPM_P2
2021/09/23 00:01:29;;;;;;;6.03;5.43;;;10.40;1.00;;;;;;6315996;22;20165;-81
2021/09/23 00:03:58;;;;;;;9.30;5.87;;;10.40;1.00;;;;;;6316103;22;20202;-81
2021/09/23 00:06:24;;;;;;;6.03;5.43;;;12.50;1.00;;;;;;6313943;22;20192;-81
2021/09/23 00:08:54;;;;;;;7.83;6.07;;;11.40;1.00;;;;;;6317149;22;20159;-81
2021/09/23 00:11:19;;;;;;;6.93;5.77;;;11.70;1.00;;;;;;6316940;22;20572;-82
2021/09/23 00:13:45;;;;;;;7.40;5.73;;;10.30;1.00;;;;;;6314905;22;20157;-82
2021/09/23 00:16:11;;;;;;;7.00;6.17;;;10.30;1.00;;;;;;6318300;22;20160;-81
2021/09/23 00:18:37;;;;;;;6.83;5.80;;;12.10;1.00;;;;;;6315262;22;20164;-81
2021/09/23 00:21:06;;;;;;;6.33;5.73;;;10.30;1.00;;;;;;6313890;22;20171;-81
2021/09/23 00:23:33;;;;;;;7.00;5.93;;;11.90;1.00;;;;;;6313644;22;20209;-82
2021/09/23 00:25:58;;;;;;;7.70;5.77;;;10.30;1.00;;;;;;6315125;22;20599;-81
2021/09/23 00:28:24;;;;;;;6.70;5.60;;;10.40;1.00;;;;;;6314385;22;20188;-81
2021/09/23 00:30:50;;;;;;;7.33;5.97;;;10.30;1.00;;;;;;6315063;22;20166;-81
2021/09/23 00:33:16;;;;;;;6.77;6.00;;;10.30;1.00;;;;;;6313925;22;20493;-81
2021/09/23 00:35:42;;;;;;;7.10;6.40;;;10.30;1.00;;;;;;6316706;22;20175;-81
2021/09/23 00:38:08;;;;;;;7.13;6.30;;;;;;;;;;6315468;22;20360;-81
2021/09/23 00:40:34;;;;;;;6.90;5.50;;;10.20;1.00;;;;;;6314964;22;20203;-81
2021/09/23 00:43:00;;;;;;;6.57;5.53;;;10.10;1.00;;;;;;6316114;22;20184;-81
2021/09/23 00:45:25;;;;;;;6.00;5.40;;;10.10;1.00;;;;;;6314567;22;20246;-81
2021/09/23 00:47:51;;;;;;;8.27;5.57;;;10.10;1.00;;;;;;6314584;22;20156;-81
2021/09/23 00:50:20;;;;;;;6.77;5.67;;;10.10;1.00;;;;;;6315678;22;20244;-81
2021/09/23 00:52:46;;;;;;;9.67;5.30;;;10.00;1.00;;;;;;6316039;22;20156;-81
2021/09/23 00:55:12;;;;;;;6.03;5.43;;;;;;;;;;6315020;22;20194;-81
2021/09/23 00:57:39;;;;;;;6.43;5.50;;;;;;;;;;6315929;22;20172;-81
2021/09/23 01:00:08;;;;;;;5.93;4.83;;;10.10;1.00;;;;;;6317590;22;20315;-81
2021/09/23 01:02:33;;;;;;;5.33;4.80;;;10.10;1.00;;;;;;6317429;22;20165;-81
2021/09/23 01:04:59;;;;;;;9.17;5.57;;;10.00;1.00;;;;;;6314677;22;20235;-81
2021/09/23 01:07:24;;;;;;;6.40;5.67;;;9.90;1.00;;;;;;6314729;22;20201;-81
2021/09/23 01:09:54;;;;;;;11.43;5.97;;;9.90;1.00;;;;;;6315263;22;20160;-81
2021/09/23 01:12:24;;;;;;;7.67;5.40;;;9.90;1.00;;;;;;6316569;22;20202;-82
2021/09/23 01:14:50;;;;;;;6.33;5.73;;;9.80;1.00;;;;;;6317862;22;20149;-82
2021/09/23 01:17:17;;;;;;;6.00;5.40;;;10.20;1.00;;;;;;6316851;22;20153;-82
2021/09/23 01:19:44;;;;;;;8.30;6.17;;;11.30;1.00;;;;;;6315121;22;20171;-81
2021/09/23 01:22:10;;;;;;;9.63;6.27;;;9.90;1.00;;;;;;6316454;22;20212;-82
2021/09/23 01:24:38;;;;;;;6.80;5.60;;;10.10;1.00;;;;;;6315691;22;20160;-81
2021/09/23 01:27:04;;;;;;;6.97;5.20;;;10.00;1.00;;;;;;6316458;22;20649;-81
2021/09/23 01:29:30;;;;;;;7.37;4.63;;;9.80;1.00;;;;;;6314857;22;20160;-81
2021/09/23 01:31:57;;;;;;;1869.77;141.60;;;9.90;1.00;;;;;;6315786;22;20158;-81
2021/09/23 01:34:22;;;;;;;6.50;5.07;;;9.80;1.00;;;;;;6315534;22;20176;-81
2021/09/23 01:36:48;;;;;;;6.33;4.87;;;9.80;1.00;;;;;;6316746;22;20540;-82
2021/09/23 01:39:21;;;;;;;6.17;5.57;;;10.80;1.00;;;;;;6312995;22;20626;-82
2021/09/23 01:41:47;;;;;;;6.17;5.10;;;9.70;1.00;;;;;;6314791;22;20153;-83
2021/09/23 01:44:13;;;;;;;6.27;5.67;;;9.70;1.00;;;;;;6316257;22;20169;-81
2021/09/23 01:46:38;;;;;;;6.10;5.40;;;11.50;1.00;;;;;;6315907;22;20184;-81
2021/09/23 01:49:04;;;;;;;6.40;5.43;;;9.70;1.00;;;;;;6316152;22;20144;-82
2021/09/23 01:51:30;;;;;;;6.80;5.90;;;9.70;1.00;;;;;;6316488;22;20231;-81
2021/09/23 01:53:56;;;;;;;5.77;5.00;;;9.60;1.00;;;;;;6318472;22;20148;-81
2021/09/23 01:56:22;;;;;;;6.20;5.43;;;9.50;1.00;;;;;;6315638;22;20167;-81
2021/09/23 01:58:48;;;;;;;6.33;4.83;;;;;;;;;;6318266;22;20249;-81
2021/09/23 02:01:13;;;;;;;6.30;4.90;;;9.50;1.00;;;;;;6320444;22;20203;-82
2021/09/23 02:03:39;;;;;;;8.23;5.20;;;9.40;1.00;;;;;;6316981;22;20167;-81
2021/09/23 02:06:05;;;;;;;5.37;4.77;;;9.40;1.00;;;;;;6319692;22;20277;-81
2021/09/23 02:08:31;;;;;;;8.07;5.17;;;11.50;1.00;;;;;;6316924;22;20161;-82
2021/09/23 02:10:56;;;;;;;6.43;5.33;;;9.40;1.00;;;;;;6316565;22;20598;-81
2021/09/23 02:13:22;;;;;;;6.57;5.73;;;9.40;1.00;;;;;;6316133;22;20171;-81
2021/09/23 02:15:48;;;;;;;6.93;5.20;;;9.40;1.00;;;;;;6318597;22;20205;-81
2021/09/23 02:18:14;;;;;;;6.37;5.33;;;10.20;1.00;;;;;;6315034;22;20173;-81
2021/09/23 02:20:40;;;;;;;6.73;4.90;;;9.50;1.00;;;;;;6318542;22;20172;-82
2021/09/23 02:23:06;;;;;;;6.13;5.17;;;9.30;1.00;;;;;;6316925;22;20168;-82
2021/09/23 02:25:31;;;;;;;6.07;5.23;;;9.30;1.00;;;;;;6316980;22;20180;-81
2021/09/23 02:27:57;;;;;;;6.37;4.97;;;9.30;1.00;;;;;;6318242;22;20508;-81
2021/09/23 02:30:24;;;;;;;6.33;4.73;;;9.30;1.00;;;;;;6315816;22;20168;-81
2021/09/23 02:32:50;;;;;;;5.23;4.73;;;9.20;1.00;;;;;;6315664;22;20157;-81
2021/09/23 02:35:16;;;;;;;4.77;4.20;;;10.10;1.00;;;;;;6315925;22;20175;-82
2021/09/23 02:37:42;;;;;;;8.27;5.40;;;9.20;1.00;;;;;;6318405;22;20165;-82
2021/09/23 02:40:09;;;;;;;9.83;5.33;;;11.70;1.00;;;;;;6317973;22;20166;-81
2021/09/23 02:42:36;;;;;;;5.83;4.87;;;9.20;1.00;;;;;;6319193;22;20338;-82
2021/09/23 02:45:04;;;;;;;5.80;5.20;;;9.20;1.00;;;;;;6315980;22;20220;-81
2021/09/23 02:47:30;;;;;;;6.83;5.07;;;9.20;1.00;;;;;;6315259;22;20167;-81
2021/09/23 02:49:56;;;;;;;6.50;4.20;;;9.20;1.00;;;;;;6314453;22;20159;-81
2021/09/23 02:52:21;;;;;;;7.47;4.83;;;9.20;1.00;;;;;;6316847;22;20210;-81
2021/09/23 02:54:47;;;;;;;5.77;4.67;;;9.20;1.00;;;;;;6316545;22;20619;-82
2021/09/23 02:57:13;;;;;;;6.30;4.40;;;9.30;1.00;;;;;;6316445;22;20163;-81
2021/09/23 02:59:39;;;;;;;6.63;4.80;;;9.10;1.00;;;;;;6313666;22;20558;-82
2021/09/23 03:02:05;;;;;;;6.87;4.67;;;9.00;1.00;;;;;;6314455;22;20158;-82
2021/09/23 03:04:30;;;;;;;5.03;4.40;;;9.00;1.00;;;;;;6314419;22;20182;-81
2021/09/23 03:06:57;;;;;;;4.67;4.20;;;9.00;1.00;;;;;;6314925;22;20178;-81
2021/09/23 03:09:23;;;;;;;5.13;4.37;;;9.00;1.00;;;;;;6315705;22;20157;-81
2021/09/23 03:11:48;;;;;;;5.37;4.67;;;9.20;1.00;;;;;;6315835;22;20548;-82
2021/09/23 03:14:15;;;;;;;5.57;4.30;;;;;;;;;;6316800;22;20242;-82
2021/09/23 03:16:40;;;;;;;5.17;4.67;;;9.00;1.00;;;;;;6317948;22;20189;-81
2021/09/23 03:19:06;;;;;;;5.07;4.50;;;9.00;1.00;;;;;;6319399;22;20228;-81
2021/09/23 03:21:31;;;;;;;5.30;4.80;;;8.90;1.00;;;;;;6316853;22;20170;-81
2021/09/23 03:23:57;;;;;;;4.90;4.40;;;;;;;;;;6316147;22;20160;-81
2021/09/23 03:26:23;;;;;;;6.17;4.57;;;8.90;1.00;;;;;;6315553;22;20191;-82
2021/09/23 03:28:49;;;;;;;6.17;4.63;;;8.90;1.00;;;;;;6316426;22;20834;-82
2021/09/23 03:31:14;;;;;;;6.17;5.00;;;8.80;1.00;;;;;;6317664;22;20232;-81
2021/09/23 03:33:41;;;;;;;5.30;4.53;;;10.50;1.00;;;;;;6317492;22;20793;-81
2021/09/23 03:36:07;;;;;;;5.90;5.00;;;;;;;;;;6318400;22;20160;-81
2021/09/23 03:38:32;;;;;;;5.73;4.93;;;8.80;1.00;;;;;;6316292;22;20236;-81
2021/09/23 03:40:58;;;;;;;5.03;4.53;;;8.80;1.00;;;;;;6316712;22;20166;-82
2021/09/23 03:43:24;;;;;;;8.03;4.40;;;8.80;1.00;;;;;;6317235;22;20299;-81
2021/09/23 03:45:52;;;;;;;6.37;4.63;;;8.70;1.00;;;;;;6319084;22;20185;-81
2021/09/23 03:48:21;;;;;;;6.50;4.70;;;8.70;1.00;;;;;;6319571;22;20157;-81
2021/09/23 03:50:48;;;;;;;5.17;4.57;;;8.90;1.00;;;;;;6316440;22;20160;-82
2021/09/23 03:53:14;;;;;;;6.80;5.27;;;;;;;;;;6315894;22;20165;-81
2021/09/23 03:55:39;;;;;;;5.73;5.03;;;8.70;1.00;;;;;;6317466;22;20161;-81
2021/09/23 03:58:05;;;;;;;6.87;4.90;;;8.70;1.00;;;;;;6315621;22;20674;-82
2021/09/23 04:00:31;;;;;;;6.03;5.23;;;;;;;;;;6316024;22;20180;-81
2021/09/23 04:02:57;;;;;;;7.57;5.30;;;8.70;1.00;;;;;;6314909;22;20312;-82
2021/09/23 04:05:22;;;;;;;6.80;5.60;;;8.60;1.00;;;;;;6315617;22;20173;-81
2021/09/23 04:07:49;;;;;;;7.07;5.20;;;;;;;;;;6318829;22;20150;-81
2021/09/23 04:10:14;;;;;;;7.40;5.40;;;8.60;1.00;;;;;;6315452;22;20186;-81
2021/09/23 04:12:40;;;;;;;8.03;5.10;;;;;;;;;;6312973;22;20251;-82
2021/09/23 04:15:07;;;;;;;5.47;4.97;;;8.60;1.00;;;;;;6314905;22;20175;-82
2021/09/23 04:17:34;;;;;;;6.13;5.53;;;8.50;1.00;;;;;;6316656;22;20156;-81
2021/09/23 04:19:59;;;;;;;7.70;5.40;;;8.50;1.00;;;;;;6316209;22;20152;-82
2021/09/23 04:22:25;;;;;;;7.20;5.93;;;8.50;1.00;;;;;;6313630;22;20172;-82
2021/09/23 04:24:51;;;;;;;6.07;5.00;;;9.20;1.00;;;;;;6315914;22;20193;-82
2021/09/23 04:27:17;;;;;;;6.17;5.03;;;8.50;1.00;;;;;;6314987;22;20641;-81
2021/09/23 04:29:43;;;;;;;5.20;4.70;;;8.50;1.00;;;;;;6316066;22;20164;-81
2021/09/23 04:32:10;;;;;;;6.43;5.20;;;8.50;1.00;;;;;;6312867;22;20244;-86
2021/09/23 04:34:36;;;;;;;6.43;5.20;;;;;;;;;;6309034;22;20191;-81
2021/09/23 04:37:03;;;;;;;5.77;5.13;;;8.40;1.00;;;;;;6315578;22;20237;-81
2021/09/23 04:39:28;;;;;;;5.83;5.13;;;8.40;1.00;;;;;;6316855;22;20210;-82
2021/09/23 04:41:54;;;;;;;5.90;5.13;;;8.40;1.00;;;;;;6317760;22;20152;-81
2021/09/23 04:44:20;;;;;;;6.93;5.30;;;8.40;1.00;;;;;;6315830;22;20499;-82
2021/09/23 04:46:46;;;;;;;5.70;4.67;;;;;;;;;;6317404;22;20176;-81
2021/09/23 04:49:11;;;;;;;5.67;4.80;;;8.30;1.00;;;;;;6315126;22;20239;-82
2021/09/23 04:51:37;;;;;;;8.70;5.37;;;8.20;1.00;;;;;;6314717;22;20605;-82
2021/09/23 04:54:05;;;;;;;5.60;5.03;;;;;;;;;;6314765;22;20157;-82
2021/09/23 04:56:31;;;;;;;6.20;4.53;;;8.20;1.00;;;;;;6313931;22;20337;-81
2021/09/23 04:58:56;;;;;;;5.40;4.70;;;8.40;1.00;;;;;;6317132;22;20189;-82
2021/09/23 05:01:22;;;;;;;7.67;5.37;;;10.90;1.00;;;;;;6314919;22;20178;-81
2021/09/23 05:03:47;;;;;;;6.53;4.77;;;8.20;1.00;;;;;;6313892;22;20185;-81
2021/09/23 05:06:13;;;;;;;6.80;5.00;;;8.20;1.00;;;;;;6315201;22;20195;-82
2021/09/23 05:08:39;;;;;;;7.40;5.27;;;;;;;;;;6314677;22;20169;-82
2021/09/23 05:11:05;;;;;;;6.80;4.70;;;8.10;1.00;;;;;;6316576;22;20149;-81
2021/09/23 05:13:31;;;;;;;6.37;4.73;;;8.10;1.00;;;;;;6315143;22;20228;-82
2021/09/23 05:15:57;;;;;;;8.13;4.80;;;8.00;1.00;;;;;;6317600;22;20153;-82
2021/09/23 05:18:23;;;;;;;5.97;4.90;;;;;;;;;;6317239;22;20579;-82
2021/09/23 05:20:48;;;;;;;8.57;5.20;;;8.00;1.00;;;;;;6318967;22;20163;-82
2021/09/23 05:23:14;;;;;;;5.63;4.80;;;8.50;1.00;;;;;;6313783;22;20205;-81
2021/09/23 05:25:40;;;;;;;6.87;5.37;;;8.00;1.00;;;;;;6315498;22;20188;-81
2021/09/23 05:28:05;;;;;;;6.03;4.90;;;8.00;1.00;;;;;;6319991;22;20643;-81
2021/09/23 05:30:31;;;;;;;5.90;5.17;;;8.00;1.00;;;;;;6319266;22;20174;-81
2021/09/23 05:32:57;;;;;;;8.23;5.53;;;8.00;1.00;;;;;;6319182;22;20165;-81
2021/09/23 05:35:23;;;;;;;7.20;5.57;;;;;;;;;;6321022;22;20169;-81
2021/09/23 05:37:48;;;;;;;7.17;5.90;;;8.10;1.00;;;;;;6319884;22;20169;-81
2021/09/23 05:40:14;;;;;;;7.07;6.00;;;8.10;1.00;;;;;;6318353;22;20152;-81
2021/09/23 05:42:40;;;;;;;6.77;5.80;;;8.20;1.00;;;;;;6320993;22;20224;-81
2021/09/23 05:45:10;;;;;;;8.87;6.00;;;8.40;1.00;;;;;;6320612;22;20160;-81
2021/09/23 05:47:37;;;;;;;9.77;6.77;;;8.20;1.00;;;;;;6320224;22;20167;-81
2021/09/23 05:50:03;;;;;;;9.10;6.00;;;9.10;1.00;;;;;;6315863;22;20179;-81
2021/09/23 05:52:29;;;;;;;8.30;5.40;;;8.30;1.00;;;;;;6321470;22;20527;-81
2021/09/23 05:54:55;;;;;;;8.43;5.70;;;8.40;1.00;;;;;;6317238;22;20216;-81
2021/09/23 05:57:23;;;;;;;7.83;5.90;;;;;;;;;;6317356;22;20187;-81
2021/09/23 05:59:50;;;;;;;6.33;5.60;;;8.60;1.00;;;;;;6319829;22;20527;-81
2021/09/23 06:02:17;;;;;;;6.77;5.63;;;;;;;;;;6319362;22;20165;-83
2021/09/23 06:04:42;;;;;;;8.10;5.57;;;8.70;1.00;;;;;;6319508;22;20170;-83
2021/09/23 06:07:08;;;;;;;9.53;5.87;;;10.50;1.00;;;;;;6320218;22;20186;-80
2021/09/23 06:09:34;;;;;;;8.37;5.87;;;8.80;1.00;;;;;;6316741;22;20578;-85
2021/09/23 06:11:59;;;;;;;7.23;6.07;;;8.80;1.00;;;;;;6312826;22;20489;-84
2021/09/23 06:14:27;;;;;;;7.30;5.87;;;8.90;1.00;;;;;;6311050;22;20244;-84
2021/09/23 06:16:53;;;;;;;8.13;6.50;;;9.20;1.00;;;;;;6312156;22;20168;-83
2021/09/23 06:19:19;;;;;;;8.83;6.13;;;9.50;1.00;;;;;;6320840;22;20155;-81
2021/09/23 06:21:44;;;;;;;7.83;6.07;;;9.20;1.00;;;;;;6313564;22;20171;-79
2021/09/23 06:24:10;;;;;;;8.37;5.77;;;9.20;1.00;;;;;;6311872;22;20199;-80
2021/09/23 06:26:35;;;;;;;8.43;6.10;;;9.30;1.00;;;;;;6314801;22;20187;-79
2021/09/23 06:29:01;;;;;;;9.13;7.00;;;9.40;1.00;;;;;;6313400;22;20206;-79
2021/09/23 06:31:27;;;;;;;10.07;6.37;;;;;;;;;;6309147;22;20157;-78
2021/09/23 06:33:53;;;;;;;8.77;6.13;;;9.60;1.00;;;;;;6310719;22;20167;-80
2021/09/23 06:36:18;;;;;;;10.20;7.30;;;9.70;1.00;;;;;;6314918;22;20167;-83
2021/09/23 06:38:44;;;;;;;7.03;6.20;;;9.80;1.00;;;;;;6317642;22;20247;-81
2021/09/23 06:41:12;;;;;;;9.07;6.23;;;11.30;1.00;;;;;;6316235;22;20252;-84
2021/09/23 06:43:39;;;;;;;7.97;5.60;;;10.90;1.00;;;;;;6316056;22;20160;-84
2021/09/23 06:46:05;;;;;;;8.80;6.23;;;;;;;;;;6320065;22;20244;-82
2021/09/23 06:48:31;;;;;;;8.23;6.17;;;10.20;1.00;;;;;;6320863;22;20171;-81
2021/09/23 06:50:57;;;;;;;7.80;5.87;;;10.30;1.00;;;;;;6323528;22;20152;-81
2021/09/23 06:53:22;;;;;;;9.73;6.43;;;10.50;1.00;;;;;;6317702;22;20152;-82
2021/09/23 06:55:48;;;;;;;7.47;6.13;;;10.70;1.00;;;;;;6320478;22;20164;-81
2021/09/23 06:58:13;;;;;;;9.67;6.47;;;10.70;1.00;;;;;;6319179;22;20160;-80
2021/09/23 07:00:40;;;;;;;8.73;6.40;;;12.90;1.00;;;;;;6319982;22;20666;-81
2021/09/23 07:03:06;;;;;;;9.53;6.67;;;10.80;1.00;;;;;;6318288;22;20174;-80
2021/09/23 07:05:31;;;;;;;7.47;6.77;;;11.00;1.00;;;;;;6312654;22;20267;-79
2021/09/23 07:07:57;;;;;;;8.43;6.60;;;11.90;1.00;;;;;;6312262;22;20161;-79
2021/09/23 07:10:23;;;;;;;8.73;6.57;;;12.20;1.00;;;;;;6310622;22;20160;-78
2021/09/23 07:12:48;;;;;;;7.37;6.67;;;11.10;1.00;;;;;;6318093;22;20168;-79
2021/09/23 07:15:14;;;;;;;8.77;6.53;;;;;;;;;;6320777;22;20165;-79
2021/09/23 07:17:40;;;;;;;11.80;6.10;;;11.20;1.00;;;;;;6320500;22;20183;-80
2021/09/23 07:20:06;;;;;;;9.40;6.50;;;11.40;1.00;;;;;;6318105;22;20164;-83
2021/09/23 07:22:32;;;;;;;9.10;5.90;;;11.50;1.00;;;;;;6323208;22;20163;-83
2021/09/23 07:24:58;;;;;;;9.97;7.03;;;11.70;1.00;;;;;;6318079;22;20161;-83
2021/09/23 07:27:24;;;;;;;7.77;6.30;;;11.90;1.00;;;;;;6320629;22;20176;-81
2021/09/23 07:29:50;;;;;;;9.80;7.33;;;11.90;1.00;;;;;;6315918;22;20216;-82
2021/09/23 07:32:16;;;;;;;9.13;6.37;;;13.80;1.00;;;;;;6319561;22;20172;-81
2021/09/23 07:34:42;;;;;;;7.57;6.80;;;13.90;1.00;;;;;;6315354;22;20191;-81
2021/09/23 07:37:09;;;;;;;9.07;6.83;;;12.50;1.00;;;;;;6318894;22;20165;-81
2021/09/23 07:39:35;;;;;;;8.97;7.20;;;12.50;1.00;;;;;;6321960;22;20161;-81
2021/09/23 07:42:02;;;;;;;8.40;7.60;;;12.70;1.00;;;;;;6321422;22;20163;-81
2021/09/23 07:44:28;;;;;;;10.30;7.43;;;12.90;1.00;;;;;;6318571;22;20195;-82
2021/09/23 07:46:59;;;;;;;10.37;7.93;;;;;;;;;;6324097;22;20190;-82
2021/09/23 07:49:25;;;;;;;11.57;8.07;;;13.10;1.00;;;;;;6320949;22;20171;-82
2021/09/23 07:51:51;;;;;;;9.27;8.27;;;14.00;1.00;;;;;;6318319;22;20161;-82
2021/09/23 07:54:16;;;;;;;10.60;8.03;;;13.20;1.00;;;;;;6318036;22;20307;-81
2021/09/23 07:56:44;;;;;;;9.63;8.23;;;;;;;;;;6323334;22;20160;-82
2021/09/23 07:59:09;;;;;;;10.60;8.13;;;13.50;1.00;;;;;;6319734;22;20182;-82
2021/09/23 08:01:35;;;;;;;10.07;7.10;;;13.60;1.00;;;;;;6316167;22;20684;-82
2021/09/23 08:04:01;;;;;;;10.10;7.00;;;;;;;;;;6315239;22;20508;-82
2021/09/23 08:06:27;;;;;;;8.63;6.57;;;;;;;;;;6315640;22;20194;-82
2021/09/23 08:08:53;;;;;;;9.90;6.90;;;14.00;1.00;;;;;;6313722;22;20163;-84
2021/09/23 08:11:19;;;;;;;9.10;6.93;;;14.10;1.00;;;;;;6320168;22;20165;-84
2021/09/23 08:13:44;;;;;;;8.43;6.77;;;14.20;1.00;;;;;;6312234;22;20169;-83
2021/09/23 08:16:10;;;;;;;10.50;7.20;;;;;;;;;;6316481;22;20160;-82
2021/09/23 08:18:36;;;;;;;9.23;7.07;;;14.50;1.00;;;;;;6320341;22;20198;-83
2021/09/23 08:21:01;;;;;;;14.13;7.17;;;14.50;1.00;;;;;;6314449;22;20628;-84
2021/09/23 08:23:27;;;;;;;9.23;7.00;;;14.60;1.00;;;;;;6316973;22;20503;-84
2021/09/23 08:25:53;;;;;;;9.10;6.50;;;14.70;1.00;;;;;;6317295;22;20656;-82
2021/09/23 08:28:23;;;;;;;8.80;6.50;;;14.80;1.00;;;;;;6319733;22;20461;-83
2021/09/23 08:30:49;;;;;;;7.17;5.97;;;14.90;1.00;;;;;;6317985;22;20149;-81
2021/09/23 08:33:15;;;;;;;8.03;6.23;;;;;;;;;;6320871;22;20220;-83
2021/09/23 08:35:41;;;;;;;7.93;6.27;;;;;;;;;;6317939;22;20737;-83
2021/09/23 08:38:07;;;;;;;7.90;6.57;;;;;;;;;;6318445;22;20163;-83
2021/09/23 08:40:35;;;;;;;7.57;5.73;;;;;;;;;;6318291;22;20629;-82
2021/09/23 08:43:01;;;;;;;7.00;5.27;;;15.40;1.00;;;;;;6318499;22;20163;-82
2021/09/23 08:45:27;;;;;;;8.83;5.47;;;15.30;1.00;;;;;;6317602;22;20166;-83
2021/09/23 08:47:53;;;;;;;5.87;4.77;;;15.50;1.00;;;;;;6316470;22;20212;-82
2021/09/23 08:50:18;;;;;;;7.07;5.17;;;15.60;1.00;;;;;;6318028;22;20154;-82
2021/09/23 08:52:45;;;;;;;7.97;5.33;;;15.70;1.00;;;;;;6320469;22;20222;-83
2021/09/23 08:55:28;;;;;;;6.30;5.40;;;19.50;1.00;;;;;;6291497;22;20163;-82
2021/09/23 08:57:55;;;;;;;6.03;5.17;;;15.80;1.00;;;;;;6320784;22;20150;-81
2021/09/23 09:00:22;;;;;;;7.83;5.20;;;16.00;1.00;;;;;;6318683;22;20158;-82
2021/09/23 09:03:00;;;;;;;7.27;5.20;;;16.00;1.00;;;;;;6320716;22;20230;-84
2021/09/23 09:05:26;;;;;;;7.63;4.70;;;;;;;;;;6324838;22;20180;-83
2021/09/23 09:08:05;;;;;;;6.03;4.80;;;16.10;1.00;;;;;;6322867;22;20163;-83
2021/09/23 09:10:31;;;;;;;5.90;5.20;;;;;;;;;;6323294;22;20152;-83
2021/09/23 09:13:02;;;;;;;6.17;4.80;;;16.40;1.00;;;;;;6320023;22;20239;-83
2021/09/23 09:15:47;;;;;;;10.10;5.30;;;16.50;1.00;;;;;;6301734;22;20178;-83
2021/09/23 09:18:13;;;;;;;7.73;5.50;;;;;;;;;;6317347;22;20181;-82
2021/09/23 09:20:57;;;;;;;7.20;5.27;;;16.60;1.00;;;;;;6321669;22;20224;-83
2021/09/23 09:23:25;;;;;;;8.47;5.47;;;16.60;1.00;;;;;;6322023;22;20188;-82
2021/09/23 09:25:52;;;;;;;7.47;5.33;;;16.90;1.00;;;;;;6319895;22;20205;-83
2021/09/23 09:28:19;;;;;;;9.50;5.80;;;16.90;1.00;;;;;;6291008;22;20160;-83
2021/09/23 09:30:46;;;;;;;8.43;5.87;;;;;;;;;;6321901;22;20163;-83
2021/09/23 09:33:11;;;;;;;8.90;6.10;;;16.80;1.00;;;;;;6321679;22;20179;-81
2021/09/23 09:35:37;;;;;;;7.43;4.97;;;;;;;;;;6323737;22;20176;-82
2021/09/23 09:38:05;;;;;;;6.03;5.03;;;17.10;1.00;;;;;;6316173;22;20275;-84
2021/09/23 09:40:34;;;;;;;9.00;6.20;;;17.00;1.00;;;;;;6299705;22;20164;-83
2021/09/23 09:43:09;;;;;;;11.63;5.30;;;17.30;1.00;;;;;;6313069;22;20191;-82
2021/09/23 09:45:35;;;;;;;9.20;5.77;;;17.40;1.00;;;;;;6311359;22;20183;-83
2021/09/23 09:48:02;;;;;;;7.90;5.83;;;17.30;1.00;;;;;;6317000;22;20160;-83
2021/09/23 09:50:38;;;;;;;7.83;5.43;;;17.30;1.00;;;;;;6316294;22;20184;-83
2021/09/23 09:53:07;;;;;;;12.43;5.93;;;17.50;1.00;;;;;;6312964;22;20162;-84
2021/09/23 09:55:42;;;;;;;12.53;6.73;;;17.50;1.00;;;;;;6313169;22;20495;-82
2021/09/23 09:58:09;;;;;;;7.07;5.07;;;17.60;1.00;;;;;;6312937;22;20166;-83
2021/09/23 10:00:36;;;;;;;7.40;5.90;;;17.70;1.00;;;;;;6315021;22;20603;-84
2021/09/23 10:03:03;;;;;;;5.77;4.63;;;;;;;;;;6313078;22;20160;-84
2021/09/23 10:05:29;;;;;;;7.53;5.10;;;17.80;1.00;;;;;;6314749;22;20198;-82
2021/09/23 10:07:57;;;;;;;10.17;5.47;;;17.90;1.00;;;;;;6313797;22;20174;-82
2021/09/23 10:10:28;;;;;;;11.23;5.77;;;18.00;1.00;;;;;;6317559;22;20149;-81
2021/09/23 10:12:56;;;;;;;7.23;5.00;;;18.00;1.00;;;;;;6314263;22;20179;-82
2021/09/23 10:15:23;;;;;;;5.20;4.47;;;17.90;1.00;;;;;;6318785;22;20177;-82
2021/09/23 10:17:50;;;;;;;7.73;4.77;;;17.90;1.00;;;;;;6318733;22;20157;-82
2021/09/23 10:20:20;;;;;;;6.33;4.37;;;18.00;1.00;;;;;;6319687;22;20171;-82
2021/09/23 10:22:47;;;;;;;6.07;3.90;;;;;;;;;;6317490;22;20165;-82
2021/09/23 10:25:16;;;;;;;6.40;3.53;;;18.10;1.00;;;;;;6297283;22;20248;-83
2021/09/23 10:27:58;;;;;;;7.83;3.83;;;18.50;1.00;;;;;;6318026;22;20175;-82
2021/09/23 10:30:27;;;;;;;8.53;3.93;;;18.60;1.00;;;;;;6315511;22;20149;-83
2021/09/23 10:32:54;;;;;;;4.97;3.67;;;18.60;1.00;;;;;;6317236;22;20158;-82
2021/09/23 10:35:22;;;;;;;6.13;4.17;;;18.70;1.00;;;;;;6320399;22;20195;-81
2021/09/23 10:37:51;;;;;;;5.80;4.00;;;18.80;1.00;;;;;;6319184;22;20157;-82
2021/09/23 10:40:17;;;;;;;5.63;3.30;;;;;;;;;;6320303;22;20499;-83
2021/09/23 10:42:45;;;;;;;8.53;4.43;;;19.00;1.00;;;;;;6317095;22;20202;-82
2021/09/23 10:45:11;;;;;;;5.07;3.40;;;;;;;;;;6317789;22;20196;-82
2021/09/23 10:47:37;;;;;;;9.57;4.00;;;;;;;;;;6319718;22;20207;-81
2021/09/23 10:50:06;;;;;;;4.50;3.43;;;19.30;1.00;;;;;;6315933;22;20161;-83
2021/09/23 10:52:36;;;;;;;4.47;3.30;;;19.50;1.00;;;;;;6318799;22;20173;-82
2021/09/23 10:55:04;;;;;;;5.90;3.73;;;19.50;1.00;;;;;;6317756;22;20168;-82
2021/09/23 10:57:31;;;;;;;4.47;3.10;;;;;;;;;;6320403;22;20171;-82
2021/09/23 11:00:00;;;;;;;4.67;2.93;;;19.60;1.00;;;;;;6318142;22;20337;-82
2021/09/23 11:02:31;;;;;;;3.50;3.20;;;19.80;1.00;;;;;;6320167;22;20169;-82
2021/09/23 11:04:59;;;;;;;4.00;2.87;;;19.80;1.00;;;;;;6321557;22;20240;-82
2021/09/23 11:07:29;;;;;;;4.33;3.07;;;20.10;1.00;;;;;;6315147;22;20194;-82
2021/09/23 11:10:17;;;;;;;4.33;3.40;;;20.00;1.00;;;;;;6314753;22;20132;-83
2021/09/23 11:12:45;;;;;;;5.07;3.33;;;20.30;1.00;;;;;;6317218;22;20196;-83
2021/09/23 11:15:14;;;;;;;3.40;2.90;;;20.30;1.00;;;;;;6316127;22;20156;-82
2021/09/23 11:17:41;;;;;;;9.10;3.50;;;20.50;1.00;;;;;;6314377;22;20164;-82
2021/09/23 11:20:13;;;;;;;4.00;3.40;;;20.50;1.00;;;;;;6316272;22;20160;-84
2021/09/23 11:23:00;;;;;;;5.53;3.20;;;20.70;1.00;;;;;;6314866;22;20173;-81
2021/09/23 11:25:33;;;;;;;6.93;3.23;;;20.80;1.00;;;;;;6320029;22;20159;-82
2021/09/23 11:28:00;;;;;;;7.30;3.03;;;21.00;1.00;;;;;;6317342;22;20159;-85
2021/09/23 11:30:30;;;;;;;6.23;3.20;;;21.10;1.00;;;;;;6311411;22;20663;-84
2021/09/23 11:33:08;;;;;;;3.00;2.60;;;21.50;1.00;;;;;;6315451;22;20858;-83
2021/09/23 11:35:42;;;;;;;3.67;2.77;;;22.10;1.00;;;;;;6310737;22;20350;-84
2021/09/23 11:38:11;;;;;;;6.77;2.90;;;23.90;1.00;;;;;;6314946;22;20158;-86
2021/09/23 11:40:41;;;;;;;4.38;2.85;;;24.80;1.00;;;;;;6309625;22;20175;-84
2021/09/23 11:43:09;;;;;;;4.85;2.92;;;24.80;1.00;;;;;;6310048;22;20531;-83
2021/09/23 11:45:37;;;;;;;4.07;2.80;;;25.90;1.00;;;;;;6315982;22;20577;-82
2021/09/23 11:48:10;;;;;;;4.15;2.97;;;26.30;1.00;;;;;;6316618;22;20616;-84
2021/09/23 11:50:44;;;;;;;3.45;2.60;;;26.50;1.00;;;;;;6310329;22;20148;-84
2021/09/23 11:53:18;;;;;;;3.03;2.20;;;27.10;1.00;;;;;;6315175;22;20148;-82
2021/09/23 11:56:07;;;;;;;2.88;2.30;;;27.70;1.00;;;;;;6318960;22;20171;-82
2021/09/23 11:58:38;;;;;;;2.55;2.35;;;27.50;1.00;;;;;;6323573;22;20160;-82
2021/09/23 12:01:05;;;;;;;4.35;2.42;;;28.80;1.00;;;;;;6320057;22;20198;-85
2021/09/23 12:03:41;;;;;;;3.72;1.95;;;29.30;1.00;;;;;;6315634;22;20160;-84
2021/09/23 12:06:12;;;;;;;3.30;2.40;;;29.30;1.00;;;;;;6311589;22;20179;-83
2021/09/23 12:08:38;;;;;;;3.47;2.30;;;29.80;1.00;;;;;;6312865;22;20144;-83
2021/09/23 12:11:07;;;;;;;2.45;2.25;;;29.70;1.00;;;;;;6316749;22;20156;-80
2021/09/23 12:13:38;;;;;;;2.85;1.95;;;30.00;1.00;;;;;;6315445;22;20164;-83
2021/09/23 12:16:14;;;;;;;3.53;2.53;;;29.30;1.00;;;;;;6314563;22;20153;-81
2021/09/23 12:18:42;;;;;;;3.83;2.30;;;29.10;1.00;;;;;;6314212;22;20282;-80
2021/09/23 12:21:22;;;;;;;4.38;2.88;;;29.10;1.00;;;;;;6314132;22;20160;-82
2021/09/23 12:23:52;;;;;;;5.45;2.40;;;29.40;1.00;;;;;;6313237;22;20524;-80
2021/09/23 12:26:36;;;;;;;3.95;2.50;;;29.90;1.00;;;;;;6307923;22;20174;-79
2021/09/23 12:29:05;;;;;;;3.58;2.35;;;30.40;1.00;;;;;;6310421;22;20921;-79
2021/09/23 12:31:35;;;;;;;3.40;2.10;;;30.50;1.00;;;;;;6314389;22;20145;-80
2021/09/23 12:34:05;;;;;;;3.63;2.33;;;31.30;1.00;;;;;;6315034;22;20164;-80
2021/09/23 12:36:56;;;;;;;4.13;2.28;;;31.00;1.00;;;;;;6313338;22;20153;-80
2021/09/23 12:39:34;;;;;;;4.70;2.67;;;31.50;1.00;;;;;;6299316;22;20160;-78
2021/09/23 12:42:03;;;;;;;2.67;2.28;;;32.10;1.00;;;;;;6309143;22;20202;-79
2021/09/23 12:44:31;;;;;;;2.10;1.90;;;32.10;1.00;;;;;;6313383;22;20156;-79
2021/09/23 12:47:04;;;;;;;3.25;2.38;;;32.30;1.00;;;;;;6312768;22;20238;-79
2021/09/23 12:49:31;;;;;;;3.88;2.35;;;33.70;1.00;;;;;;6309996;22;20170;-79
2021/09/23 12:52:36;;;;;;;3.65;2.80;;;33.50;1.00;;;;;;6313665;22;20160;-79
2021/09/23 12:55:26;;;;;;;3.08;2.10;;;33.60;1.00;;;;;;6308785;22;20165;-80
2021/09/23 12:57:56;;;;;;;2.88;2.25;;;33.20;1.00;;;;;;6315545;22;20159;-80
2021/09/23 13:00:39;;;;;;;3.47;1.92;;;33.60;1.00;;;;;;6315701;22;20156;-80
2021/09/23 13:03:10;;;;;;;4.25;2.30;;;33.10;1.00;;;;;;6318089;22;20144;-80
2021/09/23 13:05:37;;;;;;;3.53;2.47;;;33.90;1.00;;;;;;6315787;22;20241;-80
2021/09/23 13:08:16;;;;;;;3.47;2.28;;;34.00;1.00;;;;;;6316306;22;20598;-80
2021/09/23 13:10:42;;;;;;;3.17;2.22;;;34.20;1.00;;;;;;6315603;22;20608;-80
2021/09/23 13:13:08;;;;;;;5.53;2.53;;;34.10;1.00;;;;;;6313433;22;20156;-80
2021/09/23 13:15:40;;;;;;;4.93;2.53;;;34.40;1.00;;;;;;6314802;22;20180;-80